Time;durP1;ratioP1;P1;durP2;ratioP2;P2;SDS_P1;SDS_P2;PMS_P1;PMS_P2;Temp;Humidity;BMP_temperature;BMP_pressure;BME280_temperature;BME280_humidity;BME280_pressure;Samples;Min_cycle;Max_cycle;Signal;HPM_P1;HPM_P2
2021/06/07 00:01:36;;;;;;;8.08;4.70;;;;;;;17.20;67.57;99112.09;1728146;82;21059;-73
2021/06/07 00:04:04;;;;;;;4.55;3.90;;;;;;;16.92;68.27;99114.21;1719538;83;21062;-72
2021/06/07 00:06:30;;;;;;;8.98;4.78;;;;;;;16.76;68.71;99109.15;1731337;83;21482;-73
2021/06/07 00:08:57;;;;;;;5.10;4.17;;;;;;;16.67;68.93;99108.29;1731208;83;21020;-73
2021/06/07 00:11:23;;;;;;;5.65;4.33;;;;;;;16.54;69.31;99111.42;1728830;82;20969;-73
2021/06/07 00:13:50;;;;;;;6.05;4.20;;;;;;;16.31;69.92;99106.36;1737570;82;21059;-73
2021/06/07 00:16:18;;;;;;;10.00;4.15;;;;;;;16.11;70.52;99104.42;1734962;82;21017;-73
2021/06/07 00:18:46;;;;;;;7.40;4.80;;;;;;;15.95;71.04;99106.02;1737161;82;21063;-73
2021/06/07 00:21:20;;;;;;;6.85;4.80;;;;;;;15.88;71.42;99109.83;1734147;82;21067;-73
2021/06/07 00:23:49;;;;;;;7.40;4.40;;;;;;;15.94;71.36;99114.19;1735087;82;21056;-73
2021/06/07 00:26:17;;;;;;;7.55;4.75;;;;;;;15.84;71.50;99113.81;1735617;82;21031;-73
2021/06/07 00:28:46;;;;;;;6.83;4.92;;;;;;;15.62;71.95;99119.63;1735011;82;21008;-73
2021/06/07 00:31:14;;;;;;;6.30;4.83;;;;;;;15.40;72.63;99119.95;1734826;82;21098;-73
2021/06/07 00:33:40;;;;;;;6.92;4.75;;;;;;;15.32;73.13;99115.05;1735548;82;21012;-74
2021/06/07 00:36:07;;;;;;;7.03;5.00;;;;;;;15.33;73.34;99110.06;1731403;82;21097;-73
2021/06/07 00:38:33;;;;;;;6.05;5.12;;;;;;;15.23;73.67;99114.99;1718197;83;21059;-72
2021/06/07 00:41:02;;;;;;;8.25;5.25;;;;;;;15.15;74.15;99116.23;1722592;82;20999;-72
2021/06/07 00:43:29;;;;;;;8.73;5.10;;;;;;;15.09;74.42;99123.53;1720904;83;21095;-73
2021/06/07 00:45:56;;;;;;;8.08;5.10;;;;;;;15.12;74.50;99116.56;1715698;83;21043;-73
2021/06/07 00:48:23;;;;;;;6.58;5.10;;;;;;;15.20;74.27;99117.13;1711415;83;21048;-73
2021/06/07 00:50:58;;;;;;;8.18;5.70;;;;;;;15.15;74.44;99122.89;1711672;83;21445;-73
2021/06/07 00:53:25;;;;;;;6.17;5.15;;;;;;;15.04;74.77;99123.16;1707483;83;21006;-73
2021/06/07 00:55:55;;;;;;;7.83;5.47;;;;;;;14.95;75.09;99121.38;1712389;83;21018;-73
2021/06/07 00:58:27;;;;;;;6.87;5.15;;;;;;;14.94;75.25;99126.39;1712661;83;21114;-73
2021/06/07 01:00:55;;;;;;;8.65;5.60;;;;;;;15.04;75.19;99131.14;1709435;83;21370;-73
2021/06/07 01:03:22;;;;;;;7.53;5.87;;;;;;;15.07;75.07;99120.17;1712559;83;21353;-73
2021/06/07 01:05:51;;;;;;;7.00;5.97;;;;;;;15.01;75.14;99126.10;1711582;83;21060;-72
2021/06/07 01:08:17;;;;;;;7.33;5.80;;;;;;;14.97;75.29;99130.06;1710399;83;21028;-73
2021/06/07 01:10:44;;;;;;;7.45;5.53;;;;;;;15.02;75.05;99133.11;1714906;83;21091;-73
2021/06/07 01:13:12;;;;;;;6.45;5.37;;;;;;;15.04;74.92;99136.47;1713359;83;21058;-73
2021/06/07 01:15:41;;;;;;;6.95;5.78;;;;;;;14.86;75.09;99130.63;1711578;83;21047;-73
2021/06/07 01:18:09;;;;;;;8.33;6.05;;;;;;;14.71;75.52;99126.30;1710855;83;21070;-72
2021/06/07 01:20:36;;;;;;;6.33;5.20;;;;;;;14.70;75.62;99126.47;1705660;83;21012;-72
2021/06/07 01:23:02;;;;;;;8.63;5.55;;;;;;;14.80;75.47;99125.91;1711545;83;21031;-72
2021/06/07 01:25:37;;;;;;;7.67;5.78;;;;;;;14.79;75.43;99133.54;1713731;83;21023;-72
2021/06/07 01:28:05;;;;;;;8.08;6.03;;;;;;;14.74;75.71;99141.14;1714958;83;21027;-72
2021/06/07 01:30:36;;;;;;;7.25;5.15;;;;;;;14.66;75.79;99139.22;1712469;83;21625;-72
2021/06/07 01:33:04;;;;;;;7.55;5.72;;;;;;;14.66;75.76;99136.56;1713561;83;21024;-73
2021/06/07 01:35:31;;;;;;;6.40;5.70;;;;;;;14.73;75.57;99138.13;1711701;83;20977;-72
2021/06/07 01:37:57;;;;;;;7.12;5.95;;;;;;;14.67;75.57;99143.56;1711882;83;21015;-73
2021/06/07 01:40:33;;;;;;;6.50;5.37;;;;;;;14.55;75.96;99144.24;1714132;83;21015;-73
2021/06/07 01:43:00;;;;;;;7.58;6.00;;;;;;;14.45;76.23;99143.45;1712139;83;21005;-72
2021/06/07 01:45:28;;;;;;;7.55;5.80;;;;;;;14.40;76.45;99144.39;1713468;83;21017;-72
2021/06/07 01:47:55;;;;;;;10.55;6.28;;;;;;;14.49;76.27;99145.30;1712487;83;21073;-71
2021/06/07 01:50:21;;;;;;;8.65;6.42;;;;;;;14.51;76.32;99141.51;1713907;83;21078;-71
2021/06/07 01:52:48;;;;;;;7.10;5.80;;;;;;;14.46;76.51;99142.45;1708554;83;20991;-72
2021/06/07 01:55:17;;;;;;;8.75;6.22;;;;;;;14.48;76.49;99150.30;1710907;83;22438;-74
2021/06/07 01:57:43;;;;;;;7.65;6.58;;;;;;;14.59;76.15;99150.08;1711756;83;21034;-72
2021/06/07 02:00:18;;;;;;;8.70;6.78;;;;;;;14.15;76.17;99071.44;1706597;83;21493;-72
2021/06/07 02:02:46;;;;;;;10.25;6.42;;;;;;;14.55;76.36;99148.70;1722449;83;21293;-72
2021/06/07 02:05:18;;;;;;;9.20;6.28;;;;;;;14.52;76.48;99137.87;1705507;84;20960;-72
2021/06/07 02:07:55;;;;;;;7.72;6.17;;;;;;;14.65;76.31;99144.70;1723642;83;21058;-72
2021/06/07 02:10:24;;;;;;;8.65;6.65;;;;;;;14.67;76.30;99142.23;1722651;83;21031;-72
2021/06/07 02:12:51;;;;;;;7.67;6.40;;;;;;;14.60;76.45;99149.09;1706387;84;21485;-72
2021/06/07 02:15:18;;;;;;;8.60;6.70;;;;;;;14.53;76.61;99144.88;1705911;84;21032;-72
2021/06/07 02:17:44;;;;;;;8.40;6.30;;;;;;;14.56;76.64;99147.22;1712851;83;21095;-72
2021/06/07 02:20:15;;;;;;;7.47;6.50;;;;;;;14.71;76.39;99150.26;1705084;83;20987;-72
2021/06/07 02:22:43;;;;;;;9.03;7.20;;;;;;;14.75;76.41;99146.30;1707986;83;21063;-72
2021/06/07 02:25:14;;;;;;;9.38;7.37;;;;;;;14.73;76.44;99152.77;1709580;83;21377;-72
2021/06/07 02:27:41;;;;;;;9.83;6.72;;;;;;;14.66;76.61;99149.88;1710383;83;20961;-72
2021/06/07 02:30:11;;;;;;;8.45;6.22;;;;;;;14.68;76.62;99156.37;1711291;83;21004;-72
2021/06/07 02:32:38;;;;;;;8.60;7.00;;;;;;;14.77;76.41;99156.83;1712560;83;21464;-73
2021/06/07 02:35:08;;;;;;;10.50;7.55;;;;;;;14.79;76.47;99160.16;1711886;83;21536;-72
2021/06/07 02:37:34;;;;;;;9.20;7.35;;;;;;;14.73;76.61;99157.61;1712729;82;21107;-72
2021/06/07 02:40:07;;;;;;;8.10;6.85;;;;;;;14.65;76.82;99165.48;1713129;83;21504;-73
2021/06/07 02:42:34;;;;;;;8.68;7.05;;;;;;;14.65;76.83;99160.16;1714633;83;21021;-72
2021/06/07 02:45:00;;;;;;;8.15;6.40;;;;;;;14.69;76.71;99166.03;1716790;83;22385;-72
2021/06/07 02:47:27;;;;;;;9.93;6.90;;;;;;;14.67;76.84;99166.19;1717898;83;21036;-72
2021/06/07 02:49:53;;;;;;;12.73;7.35;;;;;;;14.62;77.13;99169.76;1688987;84;20998;-72
2021/06/07 02:52:19;;;;;;;10.15;7.37;;;;;;;14.58;77.32;99175.03;1701962;84;21034;-72
2021/06/07 02:54:46;;;;;;;10.03;6.65;;;;;;;14.63;77.37;99165.26;1710061;84;21556;-72
2021/06/07 02:57:12;;;;;;;7.40;6.53;;;;;;;14.79;77.18;99173.47;1731309;83;21007;-73
2021/06/07 02:59:38;;;;;;;8.45;6.97;;;;;;;14.85;77.05;99180.86;1708985;84;21072;-73
2021/06/07 03:02:04;;;;;;;8.50;7.45;;;;;;;14.78;77.18;99174.45;1731998;83;21514;-72
2021/06/07 03:04:31;;;;;;;8.73;6.90;;;;;;;14.79;77.39;99170.80;1731151;83;21022;-72
2021/06/07 03:06:57;;;;;;;8.28;6.95;;;;;;;14.93;77.18;99173.96;1731351;83;21035;-72
2021/06/07 03:09:23;;;;;;;10.18;7.25;;;;;;;14.99;77.09;99175.52;1731779;83;20963;-72
2021/06/07 03:11:49;;;;;;;10.43;7.10;;;;;;;14.97;77.25;99170.83;1731656;83;21006;-73
2021/06/07 03:14:16;;;;;;;7.28;6.35;;;;;;;14.98;77.46;99178.34;1731267;83;21637;-70
2021/06/07 03:16:42;;;;;;;10.78;6.85;;;;;;;15.13;77.29;99171.98;1731872;83;21011;-73
2021/06/07 03:19:09;;;;;;;8.68;7.15;;;;;;;15.23;77.22;99169.59;1731943;82;20968;-73
2021/06/07 03:21:35;;;;;;;9.23;7.25;;;;;;;15.28;77.45;99170.48;1705996;84;21063;-73
2021/06/07 03:24:03;;;;;;;10.32;7.12;;;;;;;15.35;77.51;99168.04;1708549;84;21582;-73
2021/06/07 03:26:29;;;;;;;8.08;6.72;;;;;;;15.46;77.24;99163.81;1708864;84;21035;-73
2021/06/07 03:28:56;;;;;;;10.05;6.90;;;;;;;15.67;76.81;99161.30;1731552;83;21042;-73
2021/06/07 03:31:22;;;;;;;8.43;6.37;;;;;;;15.76;76.75;99163.03;1709368;84;21586;-73
2021/06/07 03:33:49;;;;;;;8.28;6.75;;;;;;;15.77;76.71;99164.70;1635204;84;21704;-73
2021/06/07 03:36:15;;;;;;;9.18;6.90;;;;;;;15.84;76.99;99167.61;1731379;82;21062;-73
2021/06/07 03:38:42;;;;;;;8.58;6.72;;;;;;;16.02;76.88;99164.89;1730823;82;20994;-73
2021/06/07 03:41:08;;;;;;;7.47;6.28;;;;;;;16.24;76.33;99178.68;1730713;83;20991;-73
2021/06/07 03:43:37;;;;;;;8.88;7.28;;;;;;;16.34;75.98;99163.39;1731963;83;21030;-73
2021/06/07 03:46:03;;;;;;;8.80;6.72;;;;;;;16.32;76.02;99166.22;1708994;84;20957;-73
2021/06/07 03:48:30;;;;;;;8.93;7.80;;;;;;;16.28;75.63;99165.36;1731178;83;21026;-73
2021/06/07 03:50:57;;;;;;;8.08;6.78;;;;;;;16.28;75.57;99165.36;1731428;83;20967;-73
2021/06/07 03:53:23;;;;;;;10.95;7.15;;;;;;;16.42;75.18;99166.11;1732262;83;20999;-73
2021/06/07 03:55:50;;;;;;;9.58;7.35;;;;;;;16.46;75.27;99160.78;1732529;82;21015;-72
2021/06/07 03:58:17;;;;;;;10.50;8.70;;;;;;;16.45;75.16;99164.45;1732631;83;21038;-72
2021/06/07 04:00:44;;;;;;;8.98;7.20;;;;;;;16.42;74.95;99163.45;1732536;83;21034;-72
2021/06/07 04:03:11;;;;;;;11.80;7.30;;;;;;;16.44;74.62;99172.11;1732751;83;22086;-72
2021/06/07 04:05:38;;;;;;;10.00;7.80;;;;;;;16.52;74.50;99176.64;1732735;83;21574;-73
2021/06/07 04:08:06;;;;;;;8.05;7.25;;;;;;;16.49;74.57;99175.12;1723264;82;20989;-73
2021/06/07 04:10:33;;;;;;;11.35;7.20;;;;;;;16.50;74.51;99171.98;1706768;83;20992;-73
2021/06/07 04:12:59;;;;;;;9.00;6.70;;;;;;;16.55;74.32;99175.83;1719981;83;21309;-73
2021/06/07 04:15:28;;;;;;;8.23;6.62;;;;;;;16.65;73.88;99177.05;1721578;83;21044;-73
2021/06/07 04:17:55;;;;;;;7.55;5.70;;;;;;;16.58;73.68;99184.52;1721552;83;20976;-73
2021/06/07 04:20:25;;;;;;;7.80;7.00;;;;;;;16.41;73.91;99185.78;1721537;83;21051;-73
2021/06/07 04:22:51;;;;;;;7.58;6.70;;;;;;;16.33;74.26;99187.06;1720760;83;21081;-73
2021/06/07 04:25:20;;;;;;;10.15;6.85;;;;;;;16.41;74.50;99188.45;1716096;83;20995;-73
2021/06/07 04:27:46;;;;;;;9.20;7.20;;;;;;;16.54;74.40;99194.17;1721494;83;21040;-72
2021/06/07 04:30:15;;;;;;;9.18;7.50;;;;;;;16.58;74.52;99192.53;1721998;83;21035;-72
2021/06/07 04:32:43;;;;;;;9.28;7.25;;;;;;;16.58;74.45;99183.19;1676211;83;21091;-72
2021/06/07 04:35:11;;;;;;;8.95;6.87;;;;;;;16.56;74.30;99190.03;1720032;83;21335;-72
2021/06/07 04:37:42;;;;;;;8.08;6.30;;;;;;;16.61;73.97;99182.85;1712728;83;21086;-71
2021/06/07 04:40:07;;;;;;;10.18;7.03;;;;;;;16.61;73.69;99194.39;1713062;83;21524;-71
2021/06/07 04:42:34;;;;;;;9.58;7.22;;;;;;;16.55;73.82;99190.51;1717934;83;21530;-71
2021/06/07 04:45:00;;;;;;;8.90;7.03;;;;;;;16.53;74.13;99192.52;1715349;83;21559;-72
2021/06/07 04:47:26;;;;;;;9.03;6.65;;;;;;;16.61;73.82;99190.86;1701766;83;20962;-72
2021/06/07 04:49:53;;;;;;;9.10;7.40;;;;;;;16.76;73.68;99194.59;1705442;83;21037;-74
2021/06/07 04:52:19;;;;;;;9.70;8.55;;;;;;;16.79;73.55;99192.95;1707993;84;21024;-72
2021/06/07 04:54:45;;;;;;;8.28;7.37;;;;;;;16.79;73.67;99190.76;1677024;85;21034;-75
2021/06/07 04:57:11;;;;;;;8.18;5.78;;;;;;;16.86;73.49;99200.63;1698068;84;21294;-69
2021/06/07 04:59:38;;;;;;;10.53;7.25;;;;;;;17.08;73.27;99195.71;1715283;83;21011;-70
2021/06/07 05:02:04;;;;;;;11.33;8.33;;;;;;;17.22;72.92;99202.77;1716042;83;21013;-70
2021/06/07 05:04:30;;;;;;;9.68;8.23;;;;;;;17.26;72.60;99204.10;1716225;83;21062;-71
2021/06/07 05:06:57;;;;;;;8.60;6.33;;;;;;;17.29;72.58;99213.11;1713178;83;21068;-69
2021/06/07 05:09:23;;;;;;;9.93;7.15;;;;;;;17.25;72.14;99215.78;1712509;83;21084;-69
2021/06/07 05:11:50;;;;;;;7.45;6.20;;;;;;;17.31;72.16;99212.46;1716648;83;21424;-70
2021/06/07 05:14:16;;;;;;;6.87;5.97;;;;;;;17.38;72.09;99209.95;1694652;83;21555;-70
2021/06/07 05:16:43;;;;;;;7.53;6.70;;;;;;;17.36;72.37;99207.45;1673064;86;21033;-69
2021/06/07 05:19:09;;;;;;;7.28;5.45;;;;;;;17.36;72.29;99201.59;1724513;83;21023;-70
2021/06/07 05:21:35;;;;;;;10.00;6.33;;;;;;;17.41;72.13;99200.29;1724874;83;21031;-70
2021/06/07 05:24:03;;;;;;;7.55;6.78;;;;;;;17.56;72.03;99203.12;1724574;83;21050;-69
2021/06/07 05:26:29;;;;;;;7.20;6.22;;;;;;;17.61;71.86;99205.64;1724744;83;21047;-70
2021/06/07 05:28:56;;;;;;;8.90;7.10;;;;;;;17.58;71.86;99204.62;1711466;84;21040;-70
2021/06/07 05:31:25;;;;;;;8.88;6.35;;;;;;;17.53;72.07;99209.16;1693319;84;21034;-71
2021/06/07 05:33:52;;;;;;;8.55;6.45;;;;;;;17.61;71.78;99196.77;1727053;83;21122;-69
2021/06/07 05:36:18;;;;;;;7.67;6.15;;;;;;;17.65;71.43;99202.14;1701958;84;21028;-69
2021/06/07 05:38:45;;;;;;;7.37;6.53;;;;;;;17.51;71.73;99205.80;1702620;84;21064;-70
2021/06/07 05:41:12;;;;;;;10.15;7.00;;;;;;;17.48;72.59;99206.14;1710182;83;21031;-69
2021/06/07 05:43:38;;;;;;;9.75;8.75;;;;;;;17.65;72.98;99204.81;1697958;83;21006;-69
2021/06/07 05:46:04;;;;;;;13.83;11.78;;;;;;;17.88;72.45;99213.47;1712223;83;21061;-70
2021/06/07 05:48:30;;;;;;;12.35;11.15;;;;;;;17.96;72.05;99210.84;1716298;83;21040;-70
2021/06/07 05:50:57;;;;;;;10.20;8.90;;;;;;;17.98;71.67;99215.02;1719713;83;21008;-70
2021/06/07 05:53:23;;;;;;;8.60;5.90;;;;;;;18.05;71.66;99215.17;1719602;83;21040;-71
2021/06/07 05:55:49;;;;;;;6.83;5.90;;;;;;;18.16;70.91;99209.98;1719614;83;21075;-70
2021/06/07 05:58:20;;;;;;;7.20;5.72;;;;;;;18.20;70.46;99211.79;1719415;83;21032;-71
2021/06/07 06:00:50;;;;;;;6.05;5.45;;;;;;;18.17;70.49;99213.82;1717531;83;21020;-71
2021/06/07 06:03:16;;;;;;;8.75;5.80;;;;;;;18.14;70.33;99203.44;1705868;83;21074;-70
2021/06/07 06:05:43;;;;;;;7.72;5.85;;;;;;;18.11;70.33;99204.30;1700211;83;20992;-70
2021/06/07 06:08:09;;;;;;;8.70;5.97;;;;;;;18.22;70.54;99213.80;1705678;83;20995;-70
2021/06/07 06:10:37;;;;;;;7.37;6.00;;;;;;;18.36;70.23;99205.06;1719574;83;21064;-69
2021/06/07 06:13:03;;;;;;;6.42;5.72;;;;;;;18.40;69.73;99209.09;1718941;83;21001;-69
2021/06/07 06:15:29;;;;;;;7.65;5.97;;;;;;;18.41;69.95;99206.72;1719642;83;21077;-70
2021/06/07 06:17:57;;;;;;;8.95;5.97;;;;;;;18.42;69.91;99209.73;1719294;83;21115;-70
2021/06/07 06:20:30;;;;;;;6.08;5.15;;;;;;;18.48;69.97;99200.19;1719683;83;21032;-70
2021/06/07 06:22:55;;;;;;;5.87;5.33;;;;;;;18.64;69.41;99209.98;1717896;82;21019;-70
2021/06/07 06:25:21;;;;;;;9.85;6.10;;;;;;;18.65;69.04;99208.98;1706745;83;21346;-70
2021/06/07 06:27:48;;;;;;;9.13;6.62;;;;;;;18.59;69.40;99211.02;1701929;84;21075;-70
2021/06/07 06:30:24;;;;;;;8.68;5.72;;;;;;;18.55;69.54;99214.54;1702794;83;21043;-70
2021/06/07 06:32:54;;;;;;;10.65;6.17;;;;;;;18.58;69.15;99224.06;1702835;83;21074;-70
2021/06/07 06:35:21;;;;;;;6.67;5.85;;;;;;;18.65;69.38;99219.70;1717834;83;21619;-70
2021/06/07 06:37:47;;;;;;;7.25;6.00;;;;;;;18.66;69.38;99218.70;1716702;83;21132;-71
2021/06/07 06:40:22;;;;;;;8.03;5.78;;;;;;;18.63;69.13;99213.67;1716812;83;21061;-69
2021/06/07 06:42:53;;;;;;;6.83;5.00;;;;;;;18.24;69.65;99148.39;1716490;83;21015;-70
2021/06/07 06:45:20;;;;;;;5.72;5.12;;;;;;;18.79;69.54;99216.80;1718765;83;21063;-70
2021/06/07 06:47:50;;;;;;;10.15;9.10;;;;;;;18.78;69.10;99219.97;1716110;83;20993;-70
2021/06/07 06:50:15;;;;;;;11.68;9.23;;;;;;;18.73;69.45;99218.31;1703217;83;21039;-70
2021/06/07 06:52:42;;;;;;;6.72;5.15;;;;;;;18.72;70.26;99222.52;1702178;84;21548;-70
2021/06/07 06:55:09;;;;;;;5.97;5.25;;;;;;;18.80;69.87;99223.31;1701030;83;21023;-70
2021/06/07 06:57:36;;;;;;;7.37;4.90;;;;;;;19.02;69.42;99210.19;1704890;83;21075;-71
2021/06/07 07:00:05;;;;;;;7.20;5.40;;;;;;;19.16;68.75;99219.32;1713319;83;20985;-72
2021/06/07 07:02:32;;;;;;;6.05;5.20;;;;;;;19.20;69.14;99217.13;1706941;83;21011;-71
2021/06/07 07:04:58;;;;;;;6.87;5.47;;;;;;;19.29;68.71;99220.08;1698232;84;21047;-70
2021/06/07 07:07:25;;;;;;;7.45;5.28;;;;;;;19.36;68.29;99214.34;1696334;83;21407;-71
2021/06/07 07:09:51;;;;;;;7.53;5.67;;;;;;;19.49;67.53;99209.20;1702872;84;21060;-71
2021/06/07 07:12:23;;;;;;;7.28;5.45;;;;;;;19.63;66.71;99215.64;1694136;83;21043;-71
2021/06/07 07:14:46;;;;;;;8.08;6.00;;;;;;;19.65;66.62;99215.45;1701461;84;21066;-72
2021/06/07 07:17:12;;;;;;;6.47;5.80;;;;;;;19.70;67.65;99218.95;1712608;83;21003;-72
2021/06/07 07:19:39;;;;;;;7.25;5.22;;;;;;;19.78;66.85;99210.33;1717415;83;21028;-72
2021/06/07 07:22:05;;;;;;;7.15;4.92;;;;;;;19.94;66.58;99204.52;1701039;83;21044;-71
2021/06/07 07:24:32;;;;;;;7.67;5.20;;;;;;;20.25;66.12;99203.02;1708833;83;21035;-71
2021/06/07 07:26:58;;;;;;;6.15;4.67;;;;;;;20.49;64.70;99202.91;1688511;85;21573;-71
2021/06/07 07:29:24;;;;;;;7.28;4.50;;;;;;;20.63;64.13;99195.38;1693808;84;22484;-71
2021/06/07 07:31:50;;;;;;;6.05;4.80;;;;;;;20.74;64.06;99196.77;1708459;83;21171;-71
2021/06/07 07:34:17;;;;;;;7.40;5.00;;;;;;;20.82;63.23;99205.23;1713592;82;21066;-71
2021/06/07 07:36:43;;;;;;;5.97;4.40;;;;;;;20.89;62.80;99199.44;1713641;82;21084;-71
2021/06/07 07:39:10;;;;;;;7.40;4.22;;;;;;;21.00;62.39;99204.33;1714563;83;21076;-70
2021/06/07 07:41:36;;;;;;;4.75;4.00;;;;;;;21.11;63.06;99197.12;1703340;83;21024;-72
2021/06/07 07:44:03;;;;;;;4.20;3.80;;;;;;;21.34;62.57;99196.62;1716787;83;21029;-71
2021/06/07 07:46:29;;;;;;;7.10;4.45;;;;;;;21.71;61.54;99201.44;1705155;82;21054;-72
2021/06/07 07:48:56;;;;;;;7.80;3.85;;;;;;;21.95;60.20;99202.88;1720858;82;21052;-72
2021/06/07 07:51:23;;;;;;;4.92;3.72;;;;;;;22.05;58.87;99199.33;1682255;84;21711;-72
2021/06/07 07:53:49;;;;;;;4.10;3.40;;;;;;;22.15;57.90;99198.14;1712192;83;21060;-71
2021/06/07 07:56:16;;;;;;;5.33;3.42;;;;;;;22.30;57.25;99198.03;1709100;83;21002;-72
2021/06/07 07:58:42;;;;;;;5.72;3.33;;;;;;;22.38;56.42;99196.05;1711003;83;21534;-72
2021/06/07 08:01:08;;;;;;;4.80;3.47;;;;;;;22.44;55.03;99192.25;1703162;84;21639;-72
2021/06/07 08:03:35;;;;;;;6.45;3.60;;;;;;;22.40;55.29;99195.35;1710608;83;21500;-72
2021/06/07 08:06:02;;;;;;;4.87;3.40;;;;;;;22.37;55.25;99195.73;1688430;84;21025;-71
2021/06/07 08:08:28;;;;;;;5.47;3.42;;;;;;;22.36;55.56;99198.10;1719373;83;21493;-72
2021/06/07 08:10:57;;;;;;;6.90;3.47;;;;;;;22.33;54.75;99190.89;1703893;83;21561;-72
2021/06/07 08:13:24;;;;;;;6.08;3.12;;;;;;;22.28;55.11;99209.52;1691860;84;21031;-72
2021/06/07 08:15:51;;;;;;;5.33;3.33;;;;;;;22.23;54.78;99196.13;1706467;83;21055;-71
2021/06/07 08:18:17;;;;;;;6.70;3.75;;;;;;;22.30;55.10;99205.59;1697330;84;21379;-72
2021/06/07 08:20:44;;;;;;;6.80;3.72;;;;;;;22.31;55.40;99208.61;1708043;83;21023;-71
2021/06/07 08:23:10;;;;;;;5.92;3.58;;;;;;;22.36;56.06;99208.02;1704474;83;21032;-71
2021/06/07 08:25:36;;;;;;;5.30;3.52;;;;;;;22.51;55.86;99207.41;1664644;84;20968;-71
2021/06/07 08:28:05;;;;;;;5.20;3.47;;;;;;;22.62;55.79;99204.66;1698579;84;21022;-71
2021/06/07 08:30:34;;;;;;;6.25;3.75;;;;;;;22.62;54.66;99200.61;1695596;83;21543;-71
2021/06/07 08:33:03;;;;;;;6.35;3.70;;;;;;;22.55;54.50;99206.51;1713987;83;21043;-71
2021/06/07 08:35:30;;;;;;;5.00;3.90;;;;;;;22.41;54.40;99205.07;1713577;81;21140;-73
2021/06/07 08:37:57;;;;;;;4.25;3.60;;;;;;;22.29;55.84;99202.61;1702347;83;21043;-71
2021/06/07 08:40:23;;;;;;;5.25;4.03;;;;;;;22.27;55.51;99201.95;1687456;84;21096;-71
2021/06/07 08:42:50;;;;;;;4.85;4.20;;;;;;;22.21;55.27;99194.66;1698468;84;21097;-71
2021/06/07 08:45:21;;;;;;;5.35;4.20;;;;;;;22.28;55.75;99199.59;1710185;83;20999;-72
2021/06/07 08:47:49;;;;;;;7.90;4.25;;;;;;;22.30;55.23;99200.20;1725279;82;21035;-69
2021/06/07 08:50:20;;;;;;;5.22;4.25;;;;;;;22.36;55.57;99204.83;1723174;82;21083;-70
2021/06/07 08:52:47;;;;;;;8.15;4.53;;;;;;;22.40;55.01;99204.78;1691519;83;21411;-71
2021/06/07 08:55:16;;;;;;;7.35;4.30;;;;;;;22.36;55.47;99198.59;1725168;82;21028;-72
2021/06/07 08:57:47;;;;;;;5.87;4.53;;;;;;;22.42;55.46;99204.05;1721681;83;21581;-72
2021/06/07 09:00:18;;;;;;;6.47;4.10;;;;;;;22.62;56.27;99195.22;1709500;82;21012;-72
2021/06/07 09:02:45;;;;;;;5.28;4.20;;;;;;;22.87;54.97;99192.84;1716769;83;20968;-73
2021/06/07 09:05:17;;;;;;;7.37;4.05;;;;;;;23.11;54.60;99195.20;1708748;83;21043;-71
2021/06/07 09:08:01;;;;;;;5.62;4.30;;;;;;;23.33;53.61;99192.70;1716907;83;21545;-71
2021/06/07 09:10:33;;;;;;;6.05;4.47;;;;;;;23.60;53.16;99195.42;1700596;83;21553;-72
2021/06/07 09:13:04;;;;;;;5.40;4.28;;;;;;;23.76;52.41;99192.85;1712167;83;21547;-72
2021/06/07 09:15:40;;;;;;;4.50;3.65;;;;;;;23.83;52.46;99188.80;1700637;83;21484;-72
2021/06/07 09:18:10;;;;;;;5.08;4.00;;;;;;;23.81;51.65;99192.20;1719347;83;21084;-72
2021/06/07 09:20:39;;;;;;;5.10;4.30;;;;;;;23.73;51.20;99188.70;1735471;83;21083;-72
2021/06/07 09:23:12;;;;;;;6.55;4.90;;;;;;;23.73;51.77;99195.95;1712531;83;21002;-72
2021/06/07 09:25:41;;;;;;;5.78;4.90;;;;;;;23.70;50.77;99198.54;1716414;83;21545;-72
2021/06/07 09:28:20;;;;;;;5.37;4.22;;;;;;;23.56;50.95;99189.60;1707968;83;21007;-73
2021/06/07 09:30:58;;;;;;;5.40;3.90;;;;;;;23.46;51.17;99189.18;1707452;83;21050;-71
2021/06/07 09:33:39;;;;;;;5.67;3.77;;;;;;;23.32;51.95;99176.72;1713761;82;21162;-71
2021/06/07 09:36:14;;;;;;;4.65;4.15;;;;;;;23.28;52.67;99183.03;1728410;83;21983;-69
2021/06/07 09:39:03;;;;;;;5.55;4.40;;;;;;;23.32;52.04;99184.28;1710990;83;21028;-71
2021/06/07 09:41:46;;;;;;;5.55;4.00;;;;;;;23.36;51.55;99180.16;1713406;83;21092;-71
2021/06/07 09:44:22;;;;;;;6.10;4.10;;;;;;;23.50;51.46;99170.72;1713233;83;21079;-71
2021/06/07 09:46:50;;;;;;;5.72;4.62;;;;;;;23.55;50.94;99165.53;1714128;83;22110;-71
2021/06/07 09:49:20;;;;;;;6.15;4.47;;;;;;;23.51;50.55;99161.06;1708138;83;21003;-71
2021/06/07 09:51:59;;;;;;;6.85;4.45;;;;;;;23.58;50.64;99162.41;1709313;83;21519;-71
2021/06/07 09:54:26;;;;;;;8.18;4.17;;;;;;;23.36;50.20;99107.31;1695405;83;21003;-71
2021/06/07 09:56:57;;;;;;;5.92;4.50;;;;;;;23.76;51.13;99155.55;1714997;83;21008;-72
2021/06/07 09:59:34;;;;;;;5.97;4.45;;;;;;;23.83;50.75;99152.34;1708997;83;22119;-71
2021/06/07 10:02:04;;;;;;;4.90;4.03;;;;;;;23.88;51.25;99149.84;1719955;83;21019;-71
2021/06/07 10:04:55;;;;;;;6.78;4.53;;;;;;;23.94;50.43;99142.30;1733477;83;21115;-71
2021/06/07 10:07:22;;;;;;;5.20;4.28;;;;;;;23.93;50.71;99139.28;1701578;83;21036;-72
2021/06/07 10:10:13;;;;;;;7.53;4.58;;;;;;;23.94;50.45;99140.94;1708586;83;21012;-72
2021/06/07 10:12:41;;;;;;;6.97;4.75;;;;;;;24.03;51.34;99130.75;1700245;83;21027;-73
2021/06/07 10:15:11;;;;;;;6.83;4.45;;;;;;;24.03;51.40;99090.23;1715274;83;21064;-72
2021/06/07 10:17:38;;;;;;;7.65;4.75;;;;;;;24.37;48.85;99124.21;1697315;83;21486;-71
2021/06/07 10:22:38;;;;;;;5.33;4.53;;;;;;;24.28;48.14;99120.06;1703585;83;20973;-72
2021/06/07 10:25:08;;;;;;;9.13;5.25;;;;;;;24.09;48.38;99118.26;1715000;83;21027;-71
2021/06/07 10:27:35;;;;;;;9.23;4.87;;;;;;;23.97;49.20;99120.25;1716358;83;20988;-72
2021/06/07 10:30:05;;;;;;;4.85;3.80;;;;;;;23.97;48.84;99109.45;1698783;83;21036;-70
2021/06/07 10:32:31;;;;;;;6.60;3.95;;;;;;;24.01;49.64;99107.16;1679206;83;21122;-71
2021/06/07 10:35:01;;;;;;;5.97;3.42;;;;;;;24.10;48.22;99105.06;1603980;83;21012;-70
2021/06/07 10:37:28;;;;;;;5.92;4.20;;;;;;;24.15;48.77;99102.56;1694398;83;20988;-70
2021/06/07 10:40:22;;;;;;;7.67;4.30;;;;;;;24.16;48.67;99100.17;1706559;83;21460;-72
2021/06/07 10:43:03;;;;;;;6.03;4.12;;;;;;;24.13;48.95;99099.23;1713067;83;20989;-72
2021/06/07 10:45:33;;;;;;;4.42;3.30;;;;;;;24.10;47.81;99103.72;1687692;84;21028;-70
2021/06/07 10:48:00;;;;;;;4.40;3.70;;;;;;;24.11;46.23;99092.70;1703757;83;21031;-71
2021/06/07 10:50:30;;;;;;;4.58;3.55;;;;;;;24.17;47.02;99091.84;1713223;83;21062;-72
2021/06/07 10:53:06;;;;;;;5.55;3.40;;;;;;;24.26;46.02;99094.30;1700490;83;20979;-72
2021/06/07 10:55:34;;;;;;;5.03;3.60;;;;;;;24.29;45.54;99091.19;1712566;83;21024;-72
2021/06/07 10:58:03;;;;;;;4.95;3.55;;;;;;;24.19;45.66;99099.20;1707362;83;20996;-72
2021/06/07 11:00:38;;;;;;;7.58;4.08;;;;;;;24.20;46.14;99094.64;1715854;82;21283;-72
2021/06/07 11:03:24;;;;;;;4.55;3.47;;;;;;;24.30;46.72;99092.86;1708564;83;21036;-73
2021/06/07 11:05:56;;;;;;;7.10;3.80;;;;;;;24.36;46.17;99092.82;1714202;82;21074;-71
2021/06/07 11:08:31;;;;;;;8.60;4.20;;;;;;;24.51;47.35;99086.30;1693682;83;21079;-71
2021/06/07 11:11:07;;;;;;;4.65;3.35;;;;;;;24.74;47.59;99093.09;1673214;83;21016;-71
2021/06/07 11:13:49;;;;;;;4.85;3.65;;;;;;;24.85;45.69;99082.41;1700680;83;21614;-70
2021/06/07 11:16:34;;;;;;;4.00;3.30;;;;;;;24.72;44.78;99077.59;1708537;82;21157;-71
2021/06/07 11:19:08;;;;;;;4.78;3.12;;;;;;;24.59;44.86;99072.56;1691159;84;21067;-71
2021/06/07 11:21:37;;;;;;;4.87;3.67;;;;;;;24.59;45.12;99071.71;1694841;82;21051;-71
2021/06/07 11:24:32;;;;;;;5.40;3.52;;;;;;;24.56;46.25;99070.27;1711489;83;21131;-70
2021/06/07 11:26:59;;;;;;;6.47;3.58;;;;;;;24.61;45.93;99060.98;1713797;82;21012;-71
2021/06/07 11:29:29;;;;;;;4.33;3.58;;;;;;;24.53;45.45;99057.20;1704527;83;21629;-74
2021/06/07 11:32:14;;;;;;;4.20;3.58;;;;;;;24.50;45.10;99060.31;1724411;81;21179;-74
2021/06/07 11:34:50;;;;;;;6.47;3.50;;;;;;;24.50;46.37;99058.97;1715887;83;21016;-73
2021/06/07 11:37:34;;;;;;;5.60;3.30;;;;;;;24.53;45.86;99051.26;1714672;83;21525;-74
2021/06/07 11:40:04;;;;;;;6.08;3.22;;;;;;;24.43;45.12;99056.84;1678543;84;21075;-73
2021/06/07 11:42:30;;;;;;;7.83;3.55;;;;;;;24.33;44.44;99051.89;1674640;82;21575;-73